Time;durP1;ratioP1;P1;durP2;ratioP2;P2;SDS_P1;SDS_P2;PMS_P1;PMS_P2;Temp;Humidity;BMP_temperature;BMP_pressure;BME280_temperature;BME280_humidity;BME280_pressure;Samples;Min_cycle;Max_cycle;Signal;HPM_P1;HPM_P2
2021/12/17 00:01:26;;;;;;;;;;;;;;;18.24;50.35;103944.41;5044698;28;19923;-44
2021/12/17 00:03:53;;;;;;;;;;;;;;;18.25;50.30;103953.34;5045150;28;19925;-44
2021/12/17 00:08:52;;;;;;;;;;;;;;;18.23;50.34;103947.19;5051890;28;19976;-45
2021/12/17 00:11:17;;;;;;;;;;;;;;;18.22;50.20;103942.75;5044792;28;20888;-45
2021/12/17 00:13:44;;;;;;;;;;;;;;;18.22;50.31;103950.81;5045085;28;19923;-46
2021/12/17 00:16:16;;;;;;;;;;;;;;;18.21;50.34;103955.34;5059150;28;19944;-44
2021/12/17 00:19:15;;;;;;;;;;;;;;;18.20;50.42;103956.31;5051504;28;19945;-44
2021/12/17 00:48:55;;;;;;;;;;;;;;;18.15;50.29;103954.84;5044318;28;19947;-45
2021/12/17 00:51:54;;;;;;;;;;;;;;;18.15;50.33;103957.56;5044332;28;20404;-44
2021/12/17 00:54:20;;;;;;;;;;;;;;;18.13;50.33;103949.53;5044250;28;19917;-45
2021/12/17 00:56:47;;;;;;;;;;;;;;;18.13;50.33;103945.97;5043760;28;19944;-44
2021/12/17 00:59:12;;;;;;;;;;;;;;;18.12;50.31;103950.50;5044212;28;19917;-47
2021/12/17 01:01:37;;;;;;;;;;;;;;;18.10;50.41;103944.34;5043426;28;19975;-46
2021/12/17 01:04:02;;;;;;;;;;;;;;;18.11;50.36;103947.91;5043873;28;19936;-44
2021/12/17 01:06:28;;;;;;;;;;;;;;;18.11;50.42;103947.91;5044345;28;19944;-45
2021/12/17 01:08:53;;;;;;;;;;;;;;;18.09;50.45;103958.75;5043821;28;20400;-45
2021/12/17 01:11:19;;;;;;;;;;;;;;;18.10;50.54;103952.44;5044007;28;19917;-44
2021/12/17 01:13:44;;;;;;;;;;;;;;;18.09;50.28;103950.69;5044206;28;19917;-45
2021/12/17 01:16:09;;;;;;;;;;;;;;;18.08;50.38;103948.94;5042239;28;19924;-45
2021/12/17 01:18:47;;;;;;;;;;;;;;;18.08;50.32;103948.09;5042851;28;19959;-44
2021/12/17 01:42:39;;;;;;;;;;;;;;;18.02;50.24;103932.31;5043451;28;19924;-46
2021/12/17 01:45:05;;;;;;;;;;;;;;;18.01;50.35;103934.13;5039145;28;20073;-44
2021/12/17 01:47:30;;;;;;;;;;;;;;;18.01;50.45;103925.16;5042777;28;19924;-44
2021/12/17 01:55:50;;;;;;;;;;;;;;;17.99;50.51;103934.19;5043021;28;19928;-46
2021/12/17 02:00:59;;;;;;;;;;;;;;;17.98;50.42;103948.63;5042139;28;20622;-45
2021/12/17 02:03:25;;;;;;;;;;;;;;;17.97;50.47;103954.97;5043262;28;19913;-44
2021/12/17 02:05:50;;;;;;;;;;;;;;;17.96;50.34;103950.50;5041727;28;19925;-47
2021/12/17 02:08:15;;;;;;;;;;;;;;;17.96;50.46;103952.34;5043247;28;19961;-46
2021/12/17 02:21:32;;;;;;;;;;;;;;;17.94;50.50;103959.66;5042770;28;19942;-46
2021/12/17 02:29:35;;;;;;;;;;;;;;;17.92;50.47;103953.47;5042783;28;19921;-48
2021/12/17 02:32:02;;;;;;;;;;;;;;;17.91;50.45;103949.91;5044621;28;19964;-48
2021/12/17 02:36:57;;;;;;;;;;;;;;;17.90;50.23;103958.97;5042667;28;20114;-44
2021/12/17 02:47:34;;;;;;;;;;;;;;;17.89;50.24;103949.16;5042120;28;19939;-47
2021/12/17 02:49:59;;;;;;;;;;;;;;;17.88;50.33;103942.03;5042549;28;19913;-44
2021/12/17 02:52:29;;;;;;;;;;;;;;;17.88;50.43;103944.75;5044294;28;19917;-49
2021/12/17 02:54:55;;;;;;;;;;;;;;;17.87;50.50;103944.81;5046505;28;20370;-47
2021/12/17 02:57:21;;;;;;;;;;;;;;;17.88;50.23;103941.16;5046035;28;19925;-45
2021/12/17 02:59:46;;;;;;;;;;;;;;;17.86;50.41;103940.38;5045005;28;19963;-44
2021/12/17 03:02:11;;;;;;;;;;;;;;;17.87;50.20;103939.41;5043945;28;20024;-49
2021/12/17 03:04:38;;;;;;;;;;;;;;;17.85;50.21;103934.13;5046496;28;19920;-47
2021/12/17 03:07:03;;;;;;;;;;;;;;;17.85;50.39;103930.59;5028770;28;19941;-50
2021/12/17 03:09:58;;;;;;;;;;;;;;;17.84;50.44;103937.78;5026371;28;19971;-48
2021/12/17 03:12:18;;;;;;;;;;;;;;;17.84;50.30;103931.50;5032338;28;19913;-45
2021/12/17 03:14:51;;;;;;;;;;;;;;;17.83;50.22;103925.25;5046148;28;19943;-47
2021/12/17 03:17:30;;;;;;;;;;;;;;;17.83;50.46;103921.72;5045095;28;19921;-49
2021/12/17 03:25:04;;;;;;;;;;;;;;;17.80;50.37;103924.56;5042208;28;19923;-49
2021/12/17 03:27:30;;;;;;;;;;;;;;;17.80;50.43;103930.84;5045853;28;20483;-44
2021/12/17 03:29:55;;;;;;;;;;;;;;;17.80;50.30;103929.94;5045760;28;19968;-49
2021/12/17 03:32:20;;;;;;;;;;;;;;;17.80;50.29;103925.47;5045220;28;19917;-47
2021/12/17 03:34:45;;;;;;;;;;;;;;;17.79;50.44;103925.53;5045690;28;19940;-43
2021/12/17 03:37:10;;;;;;;;;;;;;;;17.78;50.48;103927.34;5045626;28;19917;-45
2021/12/17 03:39:37;;;;;;;;;;;;;;;17.78;50.39;103932.75;5045454;28;19925;-46
2021/12/17 03:42:06;;;;;;;;;;;;;;;17.78;50.23;103935.44;5045597;28;19913;-46
2021/12/17 03:44:32;;;;;;;;;;;;;;;17.77;50.25;103932.84;5045953;28;19913;-48
2021/12/17 03:46:57;;;;;;;;;;;;;;;17.77;50.30;103938.22;5045012;28;19921;-48
2021/12/17 03:49:23;;;;;;;;;;;;;;;17.77;50.42;103946.31;5045536;28;19917;-47
2021/12/17 03:52:04;;;;;;;;;;;;;;;17.77;50.34;103954.38;5045481;28;19917;-47
2021/12/17 03:54:29;;;;;;;;;;;;;;;17.76;50.43;103955.34;5045338;28;19932;-46
2021/12/17 03:56:54;;;;;;;;;;;;;;;17.76;50.40;103955.34;5044954;28;19925;-47
2021/12/17 03:59:20;;;;;;;;;;;;;;;17.75;50.27;103954.44;5045379;28;19924;-45
2021/12/17 04:01:45;;;;;;;;;;;;;;;17.74;50.38;103950.03;5044686;28;19917;-50
2021/12/17 04:04:10;;;;;;;;;;;;;;;17.73;50.42;103956.34;5044047;28;19921;-46
2021/12/17 04:06:36;;;;;;;;;;;;;;;17.73;50.49;103956.34;5045162;28;19917;-43
2021/12/17 04:09:02;;;;;;;;;;;;;;;17.72;50.22;103955.47;5044994;28;19948;-44
2021/12/17 04:11:29;;;;;;;;;;;;;;;17.71;50.40;103955.53;5044958;28;19913;-45
2021/12/17 04:13:57;;;;;;;;;;;;;;;17.62;50.34;103934.53;5045098;28;19917;-44
2021/12/17 04:16:25;;;;;;;;;;;;;;;17.69;50.43;103944.88;5043839;28;19925;-43
2021/12/17 04:18:51;;;;;;;;;;;;;;;17.69;50.43;103942.19;5043817;28;19921;-45
2021/12/17 04:21:16;;;;;;;;;;;;;;;17.69;50.45;103946.69;5043599;28;19921;-46
2021/12/17 04:23:42;;;;;;;;;;;;;;;17.69;50.34;103947.56;5043765;28;19913;-47
2021/12/17 04:26:07;;;;;;;;;;;;;;;17.69;50.43;103941.31;5044569;28;19913;-47
2021/12/17 04:28:35;;;;;;;;;;;;;;;17.69;50.28;103944.00;5044930;28;19913;-47
2021/12/17 04:31:01;;;;;;;;;;;;;;;17.68;50.29;103942.28;5043863;28;19918;-44
2021/12/17 04:33:26;;;;;;;;;;;;;;;17.67;50.38;103943.19;5043253;28;19968;-46
2021/12/17 04:35:51;;;;;;;;;;;;;;;17.67;50.20;103940.50;5044673;28;20285;-44
2021/12/17 04:38:17;;;;;;;;;;;;;;;17.67;50.52;103948.59;5044568;28;19917;-44
2021/12/17 04:40:43;;;;;;;;;;;;;;;17.66;50.20;103950.41;5044484;28;20001;-44
2021/12/17 04:43:17;;;;;;;;;;;;;;;17.65;50.31;103951.38;5044746;28;19917;-48
2021/12/17 04:45:50;;;;;;;;;;;;;;;17.66;50.33;103947.72;5044207;28;19956;-42
2021/12/17 04:59:12;;;;;;;;;;;;;;;17.64;50.27;103955.03;5044073;28;19960;-47
2021/12/17 05:01:37;;;;;;;;;;;;;;;17.64;50.28;103956.84;5043538;28;19913;-49
2021/12/17 05:04:03;;;;;;;;;;;;;;;17.64;50.38;103957.72;5043995;28;20369;-50
2021/12/17 05:06:30;;;;;;;;;;;;;;;17.63;50.27;103947.91;5044247;28;19913;-48
2021/12/17 05:09:00;;;;;;;;;;;;;;;17.64;50.42;103952.34;5043738;28;20447;-47
2021/12/17 05:11:49;;;;;;;;;;;;;;;17.63;50.38;103956.00;5043773;28;19917;-45
2021/12/17 05:22:09;;;;;;;;;;;;;;;17.61;50.19;103949.81;5041884;28;19969;-42
2021/12/17 05:24:34;;;;;;;;;;;;;;;17.62;50.47;103953.38;5057596;28;19917;-45
2021/12/17 05:27:00;;;;;;;;;;;;;;;17.61;50.35;103952.50;5043091;28;19920;-48
2021/12/17 05:29:25;;;;;;;;;;;;;;;17.60;50.55;103960.66;5043069;28;20082;-45
2021/12/17 05:31:50;;;;;;;;;;;;;;;17.59;50.49;103962.50;5042350;28;19920;-47
2021/12/17 05:34:15;;;;;;;;;;;;;;;17.60;50.54;103963.34;5043007;28;19921;-50
2021/12/17 05:36:41;;;;;;;;;;;;;;;17.60;50.56;103966.06;5042952;28;19924;-49
2021/12/17 05:39:06;;;;;;;;;;;;;;;17.48;50.50;103941.56;5042602;28;19947;-47
2021/12/17 05:41:31;;;;;;;;;;;;;;;17.60;50.47;103963.34;5039992;28;19951;-47
2021/12/17 05:43:57;;;;;;;;;;;;;;;17.59;50.58;103962.50;5058196;28;19977;-50
2021/12/17 05:47:07;;;;;;;;;;;;;;;17.59;50.61;103964.31;5042026;28;19917;-47
2021/12/17 05:49:08;;;;;;;;;;;;;;;17.59;50.44;103965.19;5028461;28;19917;-47
2021/12/17 05:51:33;;;;;;;;;;;;;;;17.58;50.57;103965.25;5042640;28;19913;-46
2021/12/17 05:53:58;;;;;;;;;;;;;;;17.58;50.41;103960.72;5042353;28;20039;-47
2021/12/17 05:56:23;;;;;;;;;;;;;;;17.58;50.62;103968.81;5042819;28;19928;-49
2021/12/17 05:58:48;;;;;;;;;;;;;;;17.58;50.52;103965.25;5043134;28;19921;-48
2021/12/17 06:01:13;;;;;;;;;;;;;;;17.58;50.51;103970.63;5042074;28;19917;-46
2021/12/17 06:03:39;;;;;;;;;;;;;;;17.58;50.71;103970.63;5042312;28;19920;-47
2021/12/17 06:06:04;;;;;;;;;;;;;;;17.59;50.64;103969.69;5042594;28;19928;-45
2021/12/17 06:08:29;;;;;;;;;;;;;;;17.58;50.57;103971.50;5042541;28;19917;-48
2021/12/17 06:10:54;;;;;;;;;;;;;;;17.58;50.90;103967.94;5042118;28;19914;-45
2021/12/17 06:13:19;;;;;;;;;;;;;;;17.58;50.75;103970.63;5042554;28;19976;-46
2021/12/17 06:15:44;;;;;;;;;;;;;;;17.58;50.94;103974.19;5041225;28;20239;-49
2021/12/17 06:18:09;;;;;;;;;;;;;;;17.58;50.94;103979.56;5042314;28;19921;-49
2021/12/17 06:20:35;;;;;;;;;;;;;;;17.58;50.97;103979.56;5042075;28;19913;-46
2021/12/17 06:23:00;;;;;;;;;;;;;;;17.57;51.05;103977.84;5041483;28;19981;-47
2021/12/17 06:25:25;;;;;;;;;;;;;;;17.58;50.89;103978.69;5041383;28;20392;-46
2021/12/17 06:27:50;;;;;;;;;;;;;;;17.58;50.83;103976.00;5041754;28;19998;-49
2021/12/17 06:30:16;;;;;;;;;;;;;;;17.58;51.11;103981.41;5041844;28;19917;-46
2021/12/17 06:32:41;;;;;;;;;;;;;;;17.58;50.91;103984.94;5041622;28;19920;-47
2021/12/17 06:35:07;;;;;;;;;;;;;;;17.58;50.94;103987.63;5042232;28;19913;-46
2021/12/17 06:37:33;;;;;;;;;;;;;;;17.58;51.18;103990.34;5042313;28;19921;-49
2021/12/17 06:39:59;;;;;;;;;;;;;;;17.58;51.23;103986.78;5042150;28;19913;-45
2021/12/17 06:42:25;;;;;;;;;;;;;;;17.57;51.02;103985.91;5041817;28;19921;-48
2021/12/17 06:44:51;;;;;;;;;;;;;;;17.58;51.16;103984.09;5042247;28;19976;-47
2021/12/17 06:47:29;;;;;;;;;;;;;;;17.57;51.13;103993.13;5041269;28;19939;-44
2021/12/17 06:54:36;;;;;;;;;;;;;;;17.58;51.26;103989.47;5041426;28;20776;-45
2021/12/17 06:58:42;;;;;;;;;;;;;;;17.57;51.24;103996.66;5041985;28;19967;-47
2021/12/17 07:05:51;;;;;;;;;;;;;;;17.55;51.17;103979.75;5040961;28;20346;-44
2021/12/17 07:09:57;;;;;;;;;;;;;;;17.55;51.24;103987.84;5048235;28;19913;-46
2021/12/17 07:22:42;;;;;;;;;;;;;;;17.55;51.31;103984.28;5041902;28;19932;-45
2021/12/17 07:33:14;;;;;;;;;;;;;;;17.59;51.48;103988.53;5041638;28;19921;-49
2021/12/17 07:35:53;;;;;;;;;;;;;;;17.62;51.32;103991.03;5041740;28;19917;-49
2021/12/17 07:40:59;;;;;;;;;;;;;;;17.64;51.32;103984.63;5051556;28;19925;-48
2021/12/17 07:43:37;;;;;;;;;;;;;;;17.65;51.18;103986.34;5045273;28;20000;-47
2021/12/17 07:46:04;;;;;;;;;;;;;;;17.65;51.20;103988.19;5044166;28;20354;-51
2021/12/17 07:48:30;;;;;;;;;;;;;;;17.66;51.06;103977.31;5060446;28;19928;-46
2021/12/17 07:50:55;;;;;;;;;;;;;;;17.66;51.05;103987.22;5045493;28;19913;-45
2021/12/17 07:53:20;;;;;;;;;;;;;;;17.67;51.00;103988.94;5045695;28;19913;-47
2021/12/17 07:55:45;;;;;;;;;;;;;;;17.66;50.97;103982.69;5044887;28;19979;-46
2021/12/17 07:58:11;;;;;;;;;;;;;;;17.68;50.93;103993.41;5045397;28;19971;-48
2021/12/17 08:00:36;;;;;;;;;;;;;;;17.68;51.18;103998.78;5045096;28;19950;-50
2021/12/17 08:03:01;;;;;;;;;;;;;;;17.68;50.79;103993.41;5044861;28;20460;-48
2021/12/17 08:05:27;;;;;;;;;;;;;;;17.68;50.79;103996.09;5045178;28;19974;-50
2021/12/17 08:07:52;;;;;;;;;;;;;;;17.67;51.00;103995.22;5045207;28;19953;-50
2021/12/17 08:10:17;;;;;;;;;;;;;;;17.67;50.70;103994.34;5044758;28;19924;-47
2021/12/17 08:12:42;;;;;;;;;;;;;;;17.67;50.85;104000.59;5045174;28;19921;-45
2021/12/17 08:15:10;;;;;;;;;;;;;;;17.67;50.75;103999.72;5045075;28;19932;-45
2021/12/17 08:17:49;;;;;;;;;;;;;;;17.66;50.86;104004.22;5044225;28;20459;-49
2021/12/17 08:25:52;;;;;;;;;;;;;;;17.68;50.70;104005.03;5051562;28;19917;-49
2021/12/17 08:28:17;;;;;;;;;;;;;;;17.68;50.75;104009.53;5045218;28;19917;-60
2021/12/17 08:30:43;;;;;;;;;;;;;;;17.68;51.06;103994.25;5044285;28;19913;-47
2021/12/17 08:33:08;;;;;;;;;;;;;;;17.70;51.00;103996.84;5044835;28;20335;-48
2021/12/17 08:35:34;;;;;;;;;;;;;;;17.70;50.75;103997.72;5045053;28;20439;-47
2021/12/17 08:38:02;;;;;;;;;;;;;;;17.72;50.97;104011.13;5044868;28;19913;-46
2021/12/17 08:40:29;;;;;;;;;;;;;;;17.72;50.90;104011.13;5044098;28;19924;-49
2021/12/17 08:42:54;;;;;;;;;;;;;;;17.73;50.85;104018.22;5044587;28;19913;-47
2021/12/17 08:45:19;;;;;;;;;;;;;;;17.74;50.85;104031.63;5044448;28;19936;-48
2021/12/17 08:47:45;;;;;;;;;;;;;;;17.74;50.86;104014.59;5043913;28;19996;-47
2021/12/17 08:50:11;;;;;;;;;;;;;;;17.73;50.63;104023.59;5043713;28;19932;-49
2021/12/17 08:52:37;;;;;;;;;;;;;;;17.73;50.56;104026.31;5044679;28;19917;-49
2021/12/17 08:55:03;;;;;;;;;;;;;;;17.74;50.68;104022.69;5044303;28;19914;-49
2021/12/17 08:57:28;;;;;;;;;;;;;;;17.73;50.60;104032.53;5044205;28;19917;-47
2021/12/17 08:59:56;;;;;;;;;;;;;;;17.73;50.59;104031.69;5044284;28;19921;-50
2021/12/17 09:02:21;;;;;;;;;;;;;;;17.74;50.37;104038.81;5043655;28;19913;-48
2021/12/17 09:04:46;;;;;;;;;;;;;;;17.75;50.41;104035.16;5044366;28;20027;-49
2021/12/17 09:07:11;;;;;;;;;;;;;;;17.74;50.53;104036.13;5044108;28;20583;-49
2021/12/17 09:09:36;;;;;;;;;;;;;;;17.74;50.27;104039.69;5043801;28;19945;-48
2021/12/17 09:12:02;;;;;;;;;;;;;;;17.75;50.47;104035.16;5044182;28;20019;-50
2021/12/17 09:14:28;;;;;;;;;;;;;;;17.74;50.40;104036.13;5043982;28;19929;-47
2021/12/17 09:16:55;;;;;;;;;;;;;;;17.74;50.09;104039.69;5043047;28;19924;-50
2021/12/17 09:19:20;;;;;;;;;;;;;;;17.74;50.38;104042.38;5044023;28;19913;-48
2021/12/17 09:21:46;;;;;;;;;;;;;;;17.76;50.04;104049.53;5043664;28;19928;-50
2021/12/17 09:24:11;;;;;;;;;;;;;;;17.76;50.26;104041.44;5044210;28;19913;-46
2021/12/17 09:26:36;;;;;;;;;;;;;;;17.77;50.14;104043.19;5043338;28;20362;-48
2021/12/17 09:29:02;;;;;;;;;;;;;;;17.77;49.97;104041.34;5043750;28;19917;-48
2021/12/17 09:31:27;;;;;;;;;;;;;;;17.77;50.06;104044.06;5043036;28;19988;-49
2021/12/17 09:33:52;;;;;;;;;;;;;;;17.79;50.11;104044.81;5043785;28;19913;-48
2021/12/17 09:36:18;;;;;;;;;;;;;;;17.79;50.02;104047.50;5043647;28;19963;-51
2021/12/17 09:38:49;;;;;;;;;;;;;;;17.79;50.03;104055.59;5043550;28;19921;-49
2021/12/17 09:41:14;;;;;;;;;;;;;;;17.80;49.91;104060.03;5042385;28;19913;-49
2021/12/17 09:43:39;;;;;;;;;;;;;;;17.80;50.10;104060.03;5043416;28;19920;-51
2021/12/17 09:46:05;;;;;;;;;;;;;;;17.81;50.04;104064.47;5042825;28;19917;-49
2021/12/17 09:48:30;;;;;;;;;;;;;;;17.81;50.00;104072.53;5043419;28;19940;-47
2021/12/17 09:50:56;;;;;;;;;;;;;;;17.82;50.04;104073.41;5043371;28;20385;-46
2021/12/17 09:53:21;;;;;;;;;;;;;;;17.82;49.82;104063.50;5043543;28;19952;-49
2021/12/17 09:55:47;;;;;;;;;;;;;;;17.83;49.75;104062.53;5042914;28;19918;-47
2021/12/17 09:58:12;;;;;;;;;;;;;;;17.84;49.72;104076.84;5043471;28;19952;-49
2021/12/17 10:00:37;;;;;;;;;;;;;;;17.84;49.87;104069.69;5041902;28;19919;-47
2021/12/17 10:03:05;;;;;;;;;;;;;;;17.85;49.62;104066.03;5042561;28;20259;-49
2021/12/17 10:05:32;;;;;;;;;;;;;;;17.85;49.66;104071.41;5041441;28;19921;-48
2021/12/17 10:07:58;;;;;;;;;;;;;;;17.88;49.77;104073.03;5042817;28;19917;-45
2021/12/17 10:10:33;;;;;;;;;;;;;;;17.88;49.76;104071.25;5042156;28;19917;-47
2021/12/17 10:13:09;;;;;;;;;;;;;;;17.90;49.72;104068.47;5042570;28;19935;-45
2021/12/17 10:15:35;;;;;;;;;;;;;;;17.91;49.57;104072.88;5040656;28;19928;-46
2021/12/17 10:18:01;;;;;;;;;;;;;;;17.93;49.63;104062.91;5039344;28;19960;-46
2021/12/17 10:20:27;;;;;;;;;;;;;;;17.94;49.76;104064.66;5041246;28;19971;-49
2021/12/17 10:22:57;;;;;;;;;;;;;;;17.95;49.75;104061.84;5042293;28;19924;-48
2021/12/17 10:25:22;;;;;;;;;;;;;;;17.97;49.71;104056.41;5042260;28;19919;-48
2021/12/17 10:27:47;;;;;;;;;;;;;;;18.00;49.70;104058.91;5042238;28;19913;-45
2021/12/17 10:30:16;;;;;;;;;;;;;;;18.03;49.54;104060.56;5041980;28;19933;-45
2021/12/17 10:32:43;;;;;;;;;;;;;;;18.05;49.50;104055.94;5042421;28;19914;-54
2021/12/17 10:35:12;;;;;;;;;;;;;;;18.09;49.49;104055.69;5043093;28;19913;-46
2021/12/17 10:37:38;;;;;;;;;;;;;;;18.13;49.44;104061.78;5058127;28;19917;-46
2021/12/17 10:40:21;;;;;;;;;;;;;;;18.16;49.50;104067.00;5042420;28;19921;-48
2021/12/17 10:43:07;;;;;;;;;;;;;;;18.19;49.42;104070.38;5042755;28;19913;-46
2021/12/17 10:45:33;;;;;;;;;;;;;;;18.23;49.47;104066.56;5042697;28;19913;-47
2021/12/17 10:48:25;;;;;;;;;;;;;;;18.24;49.51;104073.69;5042283;28;19924;-46
2021/12/17 10:50:52;;;;;;;;;;;;;;;18.25;49.42;104077.25;5042726;28;19924;-45
2021/12/17 10:53:21;;;;;;;;;;;;;;;18.25;49.43;104077.25;5041362;28;19944;-47
2021/12/17 10:55:46;;;;;;;;;;;;;;;18.26;49.30;104076.28;5041959;28;19935;-50
2021/12/17 10:58:12;;;;;;;;;;;;;;;18.26;49.49;104078.09;5042785;28;19953;-46
2021/12/17 11:00:50;;;;;;;;;;;;;;;18.26;49.28;104080.81;5042261;28;19913;-44
2021/12/17 11:03:15;;;;;;;;;;;;;;;18.25;49.46;104069.16;5041404;28;19919;-48
2021/12/17 11:05:41;;;;;;;;;;;;;;;18.26;49.50;104075.41;5041180;28;19913;-48
2021/12/17 11:08:17;;;;;;;;;;;;;;;18.26;49.28;104070.03;5042379;28;19948;-46
2021/12/17 11:10:47;;;;;;;;;;;;;;;18.25;49.47;104074.53;5041653;28;19920;-44
2021/12/17 11:13:16;;;;;;;;;;;;;;;18.27;49.55;104071.78;5044866;28;19984;-46
2021/12/17 11:15:41;;;;;;;;;;;;;;;18.26;49.55;104065.50;5045738;28;19953;-48
2021/12/17 11:18:06;;;;;;;;;;;;;;;18.26;49.48;104065.50;5061287;28;19913;-47
2021/12/17 11:20:37;;;;;;;;;;;;;;;18.27;49.63;104077.19;5045814;28;19912;-47
2021/12/17 11:23:09;;;;;;;;;;;;;;;18.27;49.61;104072.66;5037474;28;19980;-50
2021/12/17 11:25:34;;;;;;;;;;;;;;;18.27;49.52;104061.88;5026052;28;19914;-46
2021/12/17 11:27:59;;;;;;;;;;;;;;;18.27;49.67;104059.19;5042941;28;19917;-44
2021/12/17 11:30:26;;;;;;;;;;;;;;;18.27;49.50;104064.56;5045173;28;19921;-49
2021/12/17 11:32:51;;;;;;;;;;;;;;;18.28;49.52;104076.22;5044982;28;20020;-50
2021/12/17 11:35:18;;;;;;;;;;;;;;;18.27;49.55;104069.97;5045372;28;19917;-47
2021/12/17 11:37:43;;;;;;;;;;;;;;;18.28;49.57;104057.34;5045359;28;19917;-49
2021/12/17 11:40:11;;;;;;;;;;;;;;;18.29;49.61;104061.78;5044719;28;20012;-47
2021/12/17 11:42:59;;;;;;;;;;;;;;;18.28;49.67;104052.84;5060482;28;19917;-45
2021/12/17 11:45:25;;;;;;;;;;;;;;;18.29;49.78;104049.19;5045646;28;19917;-48
2021/12/17 11:47:51;;;;;;;;;;;;;;;18.30;49.62;104050.91;5059798;28;19921;-48
2021/12/17 11:50:17;;;;;;;;;;;;;;;18.31;49.67;104060.75;5045461;28;20675;-46
2021/12/17 11:52:42;;;;;;;;;;;;;;;18.32;49.70;104057.09;5045797;28;19914;-50
2021/12/17 11:55:23;;;;;;;;;;;;;;;18.34;49.77;104052.47;5045437;28;19936;-44
2021/12/17 11:57:52;;;;;;;;;;;;;;;18.36;49.75;104057.78;5045504;28;19984;-45
2021/12/17 12:00:18;;;;;;;;;;;;;;;18.37;50.20;104052.28;5045204;28;19916;-47
2021/12/17 12:02:48;;;;;;;;;;;;;;;18.39;49.83;104046.81;5060043;28;19984;-46
2021/12/17 12:05:32;;;;;;;;;;;;;;;18.40;49.71;104052.13;5045448;28;19914;-48
2021/12/17 12:08:17;;;;;;;;;;;;;;;18.40;49.77;104046.75;5044005;28;20063;-49
2021/12/17 12:10:42;;;;;;;;;;;;;;;18.42;49.84;104041.25;5044752;28;19967;-48
2021/12/17 12:13:07;;;;;;;;;;;;;;;18.43;50.00;104034.91;5045437;28;19917;-48
2021/12/17 12:15:33;;;;;;;;;;;;;;;18.45;49.90;104041.09;5044555;28;19921;-45
2021/12/17 12:17:58;;;;;;;;;;;;;;;18.45;50.20;104041.94;5044520;28;19917;-48
2021/12/17 12:20:42;;;;;;;;;;;;;;;18.45;50.01;104047.34;5045033;28;19936;-46
2021/12/17 12:23:18;;;;;;;;;;;;;;;18.36;49.98;104037.09;5030893;28;19914;-47
2021/12/17 12:25:44;;;;;;;;;;;;;;;18.46;50.21;104051.75;5024300;28;19914;-49
2021/12/17 12:28:10;;;;;;;;;;;;;;;18.46;50.07;104049.06;5025209;28;19920;-49
2021/12/17 12:30:36;;;;;;;;;;;;;;;18.47;50.12;104047.22;5039980;28;19920;-49
2021/12/17 12:33:08;;;;;;;;;;;;;;;18.46;50.07;104046.38;5024720;28;19914;-44
2021/12/17 12:35:33;;;;;;;;;;;;;;;18.48;50.06;104049.00;5024854;28;19936;-49
2021/12/17 12:38:15;;;;;;;;;;;;;;;18.49;50.13;104048.03;5026090;28;20386;-45
2021/12/17 12:40:44;;;;;;;;;;;;;;;18.50;49.98;104041.69;5044611;28;19913;-48
2021/12/17 12:43:29;;;;;;;;;;;;;;;18.50;49.94;104030.91;5044338;28;21205;-48
2021/12/17 12:45:54;;;;;;;;;;;;;;;18.51;50.18;104046.09;5039589;28;20361;-48
2021/12/17 12:48:33;;;;;;;;;;;;;;;18.51;50.02;104032.63;5044379;28;19985;-48
2021/12/17 12:51:34;;;;;;;;;;;;;;;18.52;49.89;104036.19;5044497;28;19920;-46
2021/12/17 12:53:59;;;;;;;;;;;;;;;18.53;49.89;104035.25;5040826;28;19984;-48
2021/12/17 12:56:24;;;;;;;;;;;;;;;18.54;49.95;104037.84;5043564;28;19917;-60
2021/12/17 12:58:50;;;;;;;;;;;;;;;18.55;49.98;104038.72;5042988;28;19917;-48
2021/12/17 13:01:16;;;;;;;;;;;;;;;18.54;49.91;104043.22;5043817;28;19969;-51
2021/12/17 13:03:41;;;;;;;;;;;;;;;18.54;50.02;104045.06;5055996;28;19917;-47
2021/12/17 13:06:07;;;;;;;;;;;;;;;18.54;50.00;104037.84;5023453;28;19971;-54
2021/12/17 13:08:33;;;;;;;;;;;;;;;18.48;49.90;104020.22;5024659;28;19914;-52
2021/12/17 13:11:03;;;;;;;;;;;;;;;18.55;50.02;104028.78;5023864;28;19921;-52
2021/12/17 13:13:36;;;;;;;;;;;;;;;18.55;49.79;104033.31;5024406;28;19921;-52
2021/12/17 13:16:15;;;;;;;;;;;;;;;18.56;50.02;104038.59;5029145;28;19928;-52
2021/12/17 13:23:49;;;;;;;;;;;;;;;18.56;49.97;104035.03;5050744;28;19913;-50
2021/12/17 13:26:15;;;;;;;;;;;;;;;18.36;50.11;103999.38;5043534;28;19949;-50
2021/12/17 13:29:05;;;;;;;;;;;;;;;18.56;49.83;104027.81;5043461;28;19924;-51
2021/12/17 13:31:38;;;;;;;;;;;;;;;18.57;50.29;104020.63;5042853;28;19956;-51
2021/12/17 13:34:07;;;;;;;;;;;;;;;18.58;50.38;104016.97;5044084;28;19959;-52
2021/12/17 13:36:32;;;;;;;;;;;;;;;18.58;50.06;104015.16;5043657;28;19947;-50
2021/12/17 13:38:58;;;;;;;;;;;;;;;18.59;50.34;104008.78;5043630;28;19993;-52
2021/12/17 13:41:36;;;;;;;;;;;;;;;18.59;50.54;104003.41;5058692;28;19913;-52
2021/12/17 13:44:02;;;;;;;;;;;;;;;18.60;50.65;103993.50;5043691;28;19914;-50
2021/12/17 13:46:27;;;;;;;;;;;;;;;18.60;50.39;103990.78;5042977;28;20011;-50
2021/12/17 13:48:53;;;;;;;;;;;;;;;18.61;50.58;103997.94;5043324;28;19914;-51
2021/12/17 13:51:18;;;;;;;;;;;;;;;18.61;50.66;103996.13;5058802;28;20003;-53
2021/12/17 13:53:43;;;;;;;;;;;;;;;18.59;50.57;104000.72;5058906;28;19913;-53
2021/12/17 13:56:08;;;;;;;;;;;;;;;18.60;50.46;104020.44;5058382;28;19998;-49
2021/12/17 13:58:34;;;;;;;;;;;;;;;18.60;50.45;104009.66;5058418;28;19941;-48
2021/12/17 14:00:59;;;;;;;;;;;;;;;18.61;50.44;104019.50;5042114;28;19920;-46
2021/12/17 14:03:32;;;;;;;;;;;;;;;18.61;50.63;104014.13;5043252;28;20468;-46
2021/12/17 14:06:09;;;;;;;;;;;;;;;18.61;50.39;104011.41;5043209;28;20073;-51
2021/12/17 14:08:37;;;;;;;;;;;;;;;18.62;50.52;104022.09;5043209;28;19960;-47
2021/12/17 14:11:03;;;;;;;;;;;;;;;18.61;50.59;104014.13;5042768;28;19971;-49
2021/12/17 14:13:29;;;;;;;;;;;;;;;18.61;50.59;104014.13;5043335;28;19913;-51
2021/12/17 14:15:55;;;;;;;;;;;;;;;18.63;50.65;104022.97;5041892;28;19967;-48
2021/12/17 14:18:21;;;;;;;;;;;;;;;18.63;50.89;104013.03;5042502;28;19917;-47
2021/12/17 14:20:46;;;;;;;;;;;;;;;18.64;50.76;104014.78;5042556;28;19924;-48
2021/12/17 14:23:14;;;;;;;;;;;;;;;18.64;50.87;104022.84;5041697;28;20299;-48
2021/12/17 14:25:49;;;;;;;;;;;;;;;18.62;50.82;104016.69;5042218;28;19913;-47
2021/12/17 14:28:16;;;;;;;;;;;;;;;18.63;50.95;104028.34;5042480;28;19913;-49
2021/12/17 14:30:42;;;;;;;;;;;;;;;18.62;50.56;104034.69;5041449;28;19940;-48
2021/12/17 14:33:09;;;;;;;;;;;;;;;18.62;50.74;104027.47;5041419;28;19935;-47
2021/12/17 14:35:45;;;;;;;;;;;;;;;18.62;50.76;104019.41;5042340;28;19960;-52
2021/12/17 14:38:10;;;;;;;;;;;;;;;18.62;50.81;104024.78;5042478;28;20011;-46
2021/12/17 14:40:43;;;;;;;;;;;;;;;18.62;50.45;104018.53;5041959;28;20262;-47
2021/12/17 14:43:21;;;;;;;;;;;;;;;18.62;50.43;104011.31;5056430;28;20405;-46
2021/12/17 14:46:02;;;;;;;;;;;;;;;18.63;50.57;104004.09;5056991;28;20441;-46
2021/12/17 14:49:06;;;;;;;;;;;;;;;18.63;50.74;104001.41;5045193;28;19917;-47
2021/12/17 15:04:46;;;;;;;;;;;;;;;18.64;50.74;104001.28;5046891;28;20348;-46
2021/12/17 15:07:11;;;;;;;;;;;;;;;18.64;50.48;103997.72;5046552;28;20004;-48
2021/12/17 15:09:39;;;;;;;;;;;;;;;18.65;50.55;103999.50;5046673;28;19917;-47
2021/12/17 15:12:23;;;;;;;;;;;;;;;18.65;50.54;103996.81;5046477;28;19913;-50
2021/12/17 15:14:48;;;;;;;;;;;;;;;18.64;50.76;103997.72;5050354;28;19954;-48
2021/12/17 15:17:13;;;;;;;;;;;;;;;18.63;50.74;103996.88;5045281;28;19917;-45
2021/12/17 15:19:38;;;;;;;;;;;;;;;18.64;50.44;103997.72;5046302;28;19955;-51
2021/12/17 15:22:03;;;;;;;;;;;;;;;18.63;50.51;103998.69;5045430;28;19963;-48
2021/12/17 15:24:29;;;;;;;;;;;;;;;18.63;50.75;104002.25;5045758;28;19913;-49
2021/12/17 15:26:54;;;;;;;;;;;;;;;18.64;50.60;104008.50;5045007;28;19963;-52
2021/12/17 15:29:20;;;;;;;;;;;;;;;18.63;50.58;104004.09;5045451;28;19919;-48